sensor_id;sensor_type;location;lat;lon;timestamp;P1;durP1;ratioP1;P2;durP2;ratioP2
5869;SDS011;2961;47.702;9.410;2024-01-11T00:02:07;85.60;;;31.07;;
5869;SDS011;2961;47.702;9.410;2024-01-11T00:04:33;76.17;;;29.73;;
5869;SDS011;2961;47.702;9.410;2024-01-11T00:07:00;88.30;;;31.20;;
5869;SDS011;2961;47.702;9.410;2024-01-11T00:09:27;85.27;;;30.13;;
5869;SDS011;2961;47.702;9.410;2024-01-11T00:11:54;87.37;;;32.00;;
5869;SDS011;2961;47.702;9.410;2024-01-11T00:14:21;76.00;;;30.77;;
5869;SDS011;2961;47.702;9.410;2024-01-11T00:16:49;71.37;;;29.77;;
5869;SDS011;2961;47.702;9.410;2024-01-11T00:19:17;84.60;;;29.33;;
5869;SDS011;2961;47.702;9.410;2024-01-11T00:21:45;77.43;;;28.23;;
5869;SDS011;2961;47.702;9.410;2024-01-11T00:24:11;70.57;;;25.60;;
5869;SDS011;2961;47.702;9.410;2024-01-11T00:26:38;64.30;;;26.83;;
5869;SDS011;2961;47.702;9.410;2024-01-11T00:29:06;77.03;;;28.10;;
5869;SDS011;2961;47.702;9.410;2024-01-11T00:31:33;69.77;;;25.37;;
5869;SDS011;2961;47.702;9.410;2024-01-11T00:34:01;70.97;;;28.60;;
5869;SDS011;2961;47.702;9.410;2024-01-11T00:36:47;62.10;;;26.50;;
5869;SDS011;2961;47.702;9.410;2024-01-11T00:39:15;72.60;;;29.20;;
5869;SDS011;2961;47.702;9.410;2024-01-11T00:41:42;80.87;;;29.83;;
5869;SDS011;2961;47.702;9.410;2024-01-11T00:44:08;78.17;;;28.67;;
5869;SDS011;2961;47.702;9.410;2024-01-11T00:46:35;71.13;;;29.80;;
5869;SDS011;2961;47.702;9.410;2024-01-11T00:49:04;78.40;;;30.70;;
5869;SDS011;2961;47.702;9.410;2024-01-11T00:51:31;97.20;;;30.20;;
5869;SDS011;2961;47.702;9.410;2024-01-11T00:53:58;74.97;;;28.37;;
5869;SDS011;2961;47.702;9.410;2024-01-11T00:56:25;77.60;;;28.90;;
5869;SDS011;2961;47.702;9.410;2024-01-11T00:58:52;76.73;;;29.17;;
5869;SDS011;2961;47.702;9.410;2024-01-11T01:01:19;82.03;;;28.37;;
5869;SDS011;2961;47.702;9.410;2024-01-11T01:03:45;79.00;;;29.53;;
5869;SDS011;2961;47.702;9.410;2024-01-11T01:06:14;80.43;;;30.17;;
5869;SDS011;2961;47.702;9.410;2024-01-11T01:08:40;82.80;;;31.90;;
5869;SDS011;2961;47.702;9.410;2024-01-11T01:11:07;92.57;;;32.23;;
5869;SDS011;2961;47.702;9.410;2024-01-11T01:13:34;86.97;;;31.20;;
5869;SDS011;2961;47.702;9.410;2024-01-11T01:16:01;76.60;;;30.23;;
5869;SDS011;2961;47.702;9.410;2024-01-11T01:18:28;93.57;;;32.40;;
5869;SDS011;2961;47.702;9.410;2024-01-11T01:20:55;76.67;;;28.40;;
5869;SDS011;2961;47.702;9.410;2024-01-11T01:23:23;87.97;;;32.50;;
5869;SDS011;2961;47.702;9.410;2024-01-11T01:25:49;85.37;;;30.70;;
5869;SDS011;2961;47.702;9.410;2024-01-11T01:28:16;82.13;;;32.60;;
5869;SDS011;2961;47.702;9.410;2024-01-11T01:30:42;76.83;;;29.23;;
5869;SDS011;2961;47.702;9.410;2024-01-11T01:33:09;81.97;;;32.23;;
5869;SDS011;2961;47.702;9.410;2024-01-11T01:35:36;89.13;;;34.10;;
5869;SDS011;2961;47.702;9.410;2024-01-11T01:38:03;92.00;;;29.30;;
5869;SDS011;2961;47.702;9.410;2024-01-11T01:40:31;86.80;;;30.33;;
5869;SDS011;2961;47.702;9.410;2024-01-11T01:42:58;92.73;;;29.27;;
5869;SDS011;2961;47.702;9.410;2024-01-11T01:45:25;96.70;;;31.40;;
5869;SDS011;2961;47.702;9.410;2024-01-11T01:47:53;83.30;;;30.07;;
5869;SDS011;2961;47.702;9.410;2024-01-11T01:50:21;71.50;;;27.80;;
5869;SDS011;2961;47.702;9.410;2024-01-11T01:52:48;90.33;;;31.57;;
5869;SDS011;2961;47.702;9.410;2024-01-11T01:55:16;77.20;;;29.67;;
5869;SDS011;2961;47.702;9.410;2024-01-11T01:57:46;89.23;;;33.87;;
5869;SDS011;2961;47.702;9.410;2024-01-11T02:00:14;78.43;;;30.60;;
5869;SDS011;2961;47.702;9.410;2024-01-11T02:02:42;77.67;;;26.47;;
5869;SDS011;2961;47.702;9.410;2024-01-11T02:05:10;80.10;;;31.77;;
5869;SDS011;2961;47.702;9.410;2024-01-11T02:07:38;84.27;;;29.10;;
5869;SDS011;2961;47.702;9.410;2024-01-11T02:10:06;87.37;;;28.60;;
5869;SDS011;2961;47.702;9.410;2024-01-11T02:12:35;74.33;;;27.33;;
5869;SDS011;2961;47.702;9.410;2024-01-11T02:15:04;81.37;;;29.90;;
5869;SDS011;2961;47.702;9.410;2024-01-11T02:17:31;98.47;;;33.33;;
5869;SDS011;2961;47.702;9.410;2024-01-11T02:19:58;81.07;;;27.23;;
5869;SDS011;2961;47.702;9.410;2024-01-11T02:22:27;89.90;;;33.17;;
5869;SDS011;2961;47.702;9.410;2024-01-11T02:24:59;104.13;;;36.37;;
5869;SDS011;2961;47.702;9.410;2024-01-11T02:27:26;97.20;;;34.07;;
5869;SDS011;2961;47.702;9.410;2024-01-11T02:29:52;93.63;;;30.73;;
5869;SDS011;2961;47.702;9.410;2024-01-11T02:32:19;99.87;;;37.40;;
5869;SDS011;2961;47.702;9.410;2024-01-11T02:34:46;91.87;;;31.83;;
5869;SDS011;2961;47.702;9.410;2024-01-11T02:37:13;89.53;;;30.97;;
5869;SDS011;2961;47.702;9.410;2024-01-11T02:39:40;92.33;;;34.43;;
5869;SDS011;2961;47.702;9.410;2024-01-11T02:42:09;108.63;;;34.00;;
5869;SDS011;2961;47.702;9.410;2024-01-11T02:44:36;83.27;;;31.00;;
5869;SDS011;2961;47.702;9.410;2024-01-11T02:47:03;91.70;;;34.43;;
5869;SDS011;2961;47.702;9.410;2024-01-11T02:49:29;90.17;;;31.93;;
5869;SDS011;2961;47.702;9.410;2024-01-11T02:51:56;93.60;;;29.67;;
5869;SDS011;2961;47.702;9.410;2024-01-11T02:54:23;76.10;;;28.30;;
5869;SDS011;2961;47.702;9.410;2024-01-11T02:56:50;92.33;;;32.13;;
5869;SDS011;2961;47.702;9.410;2024-01-11T02:59:18;82.70;;;31.30;;
5869;SDS011;2961;47.702;9.410;2024-01-11T03:01:44;93.80;;;31.60;;
5869;SDS011;2961;47.702;9.410;2024-01-11T03:04:11;96.87;;;32.90;;
5869;SDS011;2961;47.702;9.410;2024-01-11T03:06:39;96.33;;;32.87;;
5869;SDS011;2961;47.702;9.410;2024-01-11T03:09:06;92.43;;;33.20;;
5869;SDS011;2961;47.702;9.410;2024-01-11T03:11:32;86.60;;;30.07;;
5869;SDS011;2961;47.702;9.410;2024-01-11T03:13:59;80.27;;;27.80;;
5869;SDS011;2961;47.702;9.410;2024-01-11T03:16:29;79.67;;;28.57;;
5869;SDS011;2961;47.702;9.410;2024-01-11T03:18:55;84.67;;;30.97;;
5869;SDS011;2961;47.702;9.410;2024-01-11T03:21:22;91.33;;;32.40;;
5869;SDS011;2961;47.702;9.410;2024-01-11T03:23:49;87.13;;;31.87;;
5869;SDS011;2961;47.702;9.410;2024-01-11T03:26:16;87.60;;;32.83;;
5869;SDS011;2961;47.702;9.410;2024-01-11T03:28:43;99.27;;;35.80;;
5869;SDS011;2961;47.702;9.410;2024-01-11T03:31:10;85.50;;;30.87;;
5869;SDS011;2961;47.702;9.410;2024-01-11T03:33:38;92.70;;;32.87;;
5869;SDS011;2961;47.702;9.410;2024-01-11T03:36:09;85.40;;;34.03;;
5869;SDS011;2961;47.702;9.410;2024-01-11T03:38:36;75.33;;;28.20;;
5869;SDS011;2961;47.702;9.410;2024-01-11T03:41:06;73.80;;;31.10;;
5869;SDS011;2961;47.702;9.410;2024-01-11T03:43:34;88.93;;;32.00;;
5869;SDS011;2961;47.702;9.410;2024-01-11T03:46:01;99.97;;;34.80;;
5869;SDS011;2961;47.702;9.410;2024-01-11T03:48:28;93.83;;;32.33;;
5869;SDS011;2961;47.702;9.410;2024-01-11T03:50:56;92.63;;;32.30;;
5869;SDS011;2961;47.702;9.410;2024-01-11T03:53:22;99.90;;;32.27;;
5869;SDS011;2961;47.702;9.410;2024-01-11T03:55:49;84.10;;;30.43;;
5869;SDS011;2961;47.702;9.410;2024-01-11T03:58:16;94.67;;;34.00;;
5869;SDS011;2961;47.702;9.410;2024-01-11T04:00:43;100.40;;;35.10;;
5869;SDS011;2961;47.702;9.410;2024-01-11T04:03:10;78.10;;;30.40;;
5869;SDS011;2961;47.702;9.410;2024-01-11T04:05:36;96.70;;;32.80;;
5869;SDS011;2961;47.702;9.410;2024-01-11T04:08:05;95.20;;;32.67;;
5869;SDS011;2961;47.702;9.410;2024-01-11T04:10:33;102.87;;;33.40;;
5869;SDS011;2961;47.702;9.410;2024-01-11T04:12:59;93.83;;;35.30;;
5869;SDS011;2961;47.702;9.410;2024-01-11T04:15:26;79.17;;;31.27;;
5869;SDS011;2961;47.702;9.410;2024-01-11T04:17:53;92.17;;;32.40;;
5869;SDS011;2961;47.702;9.410;2024-01-11T04:20:20;95.27;;;32.57;;
5869;SDS011;2961;47.702;9.410;2024-01-11T04:22:46;85.30;;;34.30;;
5869;SDS011;2961;47.702;9.410;2024-01-11T04:25:15;75.97;;;29.87;;
5869;SDS011;2961;47.702;9.410;2024-01-11T04:27:41;96.07;;;31.50;;
5869;SDS011;2961;47.702;9.410;2024-01-11T04:30:08;78.23;;;29.90;;
5869;SDS011;2961;47.702;9.410;2024-01-11T04:32:35;83.17;;;28.60;;
5869;SDS011;2961;47.702;9.410;2024-01-11T04:35:03;84.30;;;30.10;;
5869;SDS011;2961;47.702;9.410;2024-01-11T04:37:30;85.23;;;30.50;;
5869;SDS011;2961;47.702;9.410;2024-01-11T04:39:57;81.03;;;31.57;;
5869;SDS011;2961;47.702;9.410;2024-01-11T04:42:26;93.03;;;32.27;;
5869;SDS011;2961;47.702;9.410;2024-01-11T04:44:53;89.57;;;30.67;;
5869;SDS011;2961;47.702;9.410;2024-01-11T04:47:20;70.50;;;29.03;;
5869;SDS011;2961;47.702;9.410;2024-01-11T04:49:47;93.30;;;30.90;;
5869;SDS011;2961;47.702;9.410;2024-01-11T04:52:13;78.87;;;28.33;;
5869;SDS011;2961;47.702;9.410;2024-01-11T04:54:40;91.83;;;30.80;;
5869;SDS011;2961;47.702;9.410;2024-01-11T04:57:07;88.77;;;31.07;;
5869;SDS011;2961;47.702;9.410;2024-01-11T04:59:35;87.30;;;30.83;;
5869;SDS011;2961;47.702;9.410;2024-01-11T05:02:02;90.03;;;31.57;;
5869;SDS011;2961;47.702;9.410;2024-01-11T05:04:29;75.30;;;27.67;;
5869;SDS011;2961;47.702;9.410;2024-01-11T05:06:55;89.10;;;32.83;;
5869;SDS011;2961;47.702;9.410;2024-01-11T05:09:22;98.90;;;31.87;;
5869;SDS011;2961;47.702;9.410;2024-01-11T05:11:49;84.20;;;29.67;;
5869;SDS011;2961;47.702;9.410;2024-01-11T05:14:16;86.43;;;31.47;;
5869;SDS011;2961;47.702;9.410;2024-01-11T05:16:44;89.43;;;31.30;;
5869;SDS011;2961;47.702;9.410;2024-01-11T05:19:11;88.00;;;30.63;;
5869;SDS011;2961;47.702;9.410;2024-01-11T05:21:37;78.03;;;30.40;;
5869;SDS011;2961;47.702;9.410;2024-01-11T05:24:04;80.47;;;30.50;;
5869;SDS011;2961;47.702;9.410;2024-01-11T05:26:31;66.23;;;25.47;;
5869;SDS011;2961;47.702;9.410;2024-01-11T05:28:58;64.20;;;25.40;;
5869;SDS011;2961;47.702;9.410;2024-01-11T05:31:25;77.60;;;26.87;;
5869;SDS011;2961;47.702;9.410;2024-01-11T05:33:53;82.93;;;29.80;;
5869;SDS011;2961;47.702;9.410;2024-01-11T05:36:20;76.20;;;27.20;;
5869;SDS011;2961;47.702;9.410;2024-01-11T05:38:46;65.97;;;26.67;;
5869;SDS011;2961;47.702;9.410;2024-01-11T05:41:13;80.57;;;27.33;;
5869;SDS011;2961;47.702;9.410;2024-01-11T05:43:40;86.63;;;24.70;;
5869;SDS011;2961;47.702;9.410;2024-01-11T05:46:07;85.40;;;26.87;;
5869;SDS011;2961;47.702;9.410;2024-01-11T05:48:34;62.67;;;25.60;;
5869;SDS011;2961;47.702;9.410;2024-01-11T05:51:02;71.27;;;26.03;;
5869;SDS011;2961;47.702;9.410;2024-01-11T05:53:29;78.90;;;27.17;;
5869;SDS011;2961;47.702;9.410;2024-01-11T05:56:00;81.53;;;27.20;;
5869;SDS011;2961;47.702;9.410;2024-01-11T05:58:28;68.60;;;26.10;;
5869;SDS011;2961;47.702;9.410;2024-01-11T06:00:54;71.10;;;27.13;;
5869;SDS011;2961;47.702;9.410;2024-01-11T06:03:22;68.73;;;25.27;;
5869;SDS011;2961;47.702;9.410;2024-01-11T06:05:48;72.77;;;24.80;;
5869;SDS011;2961;47.702;9.410;2024-01-11T06:08:16;77.80;;;27.73;;
5869;SDS011;2961;47.702;9.410;2024-01-11T06:10:43;92.57;;;33.55;;
5869;SDS011;2961;47.702;9.410;2024-01-11T06:13:10;63.20;;;22.97;;
5869;SDS011;2961;47.702;9.410;2024-01-11T06:15:37;86.97;;;30.13;;
5869;SDS011;2961;47.702;9.410;2024-01-11T06:18:04;80.03;;;26.97;;
5869;SDS011;2961;47.702;9.410;2024-01-11T06:20:30;88.28;;;34.92;;
5869;SDS011;2961;47.702;9.410;2024-01-11T06:22:57;78.57;;;29.17;;
5869;SDS011;2961;47.702;9.410;2024-01-11T06:25:25;84.38;;;32.10;;
5869;SDS011;2961;47.702;9.410;2024-01-11T06:27:52;79.80;;;27.10;;
5869;SDS011;2961;47.702;9.410;2024-01-11T06:30:20;76.60;;;25.73;;
5869;SDS011;2961;47.702;9.410;2024-01-11T06:32:46;69.13;;;26.13;;
5869;SDS011;2961;47.702;9.410;2024-01-11T06:35:13;77.70;;;21.27;;
5869;SDS011;2961;47.702;9.410;2024-01-11T06:37:40;64.33;;;23.90;;
5869;SDS011;2961;47.702;9.410;2024-01-11T06:40:07;61.07;;;23.20;;
5869;SDS011;2961;47.702;9.410;2024-01-11T06:42:35;68.63;;;24.60;;
5869;SDS011;2961;47.702;9.410;2024-01-11T06:45:02;72.43;;;22.67;;
5869;SDS011;2961;47.702;9.410;2024-01-11T06:47:29;62.53;;;22.07;;
5869;SDS011;2961;47.702;9.410;2024-01-11T06:49:56;61.10;;;22.20;;
5869;SDS011;2961;47.702;9.410;2024-01-11T06:52:23;54.87;;;21.77;;
5869;SDS011;2961;47.702;9.410;2024-01-11T06:54:50;56.53;;;17.77;;
5869;SDS011;2961;47.702;9.410;2024-01-11T06:57:17;55.80;;;19.97;;
5869;SDS011;2961;47.702;9.410;2024-01-11T06:59:45;61.60;;;23.80;;
5869;SDS011;2961;47.702;9.410;2024-01-11T07:02:12;50.37;;;19.40;;
5869;SDS011;2961;47.702;9.410;2024-01-11T07:04:43;58.73;;;21.17;;
5869;SDS011;2961;47.702;9.410;2024-01-11T07:07:10;54.07;;;20.63;;
5869;SDS011;2961;47.702;9.410;2024-01-11T07:09:38;62.80;;;22.90;;
5869;SDS011;2961;47.702;9.410;2024-01-11T07:12:04;54.23;;;19.53;;
5869;SDS011;2961;47.702;9.410;2024-01-11T07:14:32;62.63;;;20.60;;
5869;SDS011;2961;47.702;9.410;2024-01-11T07:17:00;56.00;;;18.47;;
5869;SDS011;2961;47.702;9.410;2024-01-11T07:19:27;64.70;;;22.20;;
5869;SDS011;2961;47.702;9.410;2024-01-11T07:21:54;50.23;;;19.97;;
5869;SDS011;2961;47.702;9.410;2024-01-11T07:24:20;58.77;;;23.50;;
5869;SDS011;2961;47.702;9.410;2024-01-11T07:26:47;50.23;;;20.37;;
5869;SDS011;2961;47.702;9.410;2024-01-11T07:29:14;57.33;;;20.00;;
5869;SDS011;2961;47.702;9.410;2024-01-11T07:31:41;53.27;;;20.20;;
5869;SDS011;2961;47.702;9.410;2024-01-11T07:34:09;44.50;;;16.27;;
5869;SDS011;2961;47.702;9.410;2024-01-11T07:36:36;47.20;;;18.00;;
5869;SDS011;2961;47.702;9.410;2024-01-11T07:39:03;46.37;;;17.83;;
5869;SDS011;2961;47.702;9.410;2024-01-11T07:41:31;46.50;;;16.23;;
5869;SDS011;2961;47.702;9.410;2024-01-11T07:43:57;42.10;;;15.63;;
5869;SDS011;2961;47.702;9.410;2024-01-11T07:46:25;50.20;;;17.40;;
5869;SDS011;2961;47.702;9.410;2024-01-11T07:48:51;47.20;;;17.40;;
5869;SDS011;2961;47.702;9.410;2024-01-11T07:51:19;43.47;;;17.23;;
5869;SDS011;2961;47.702;9.410;2024-01-11T07:53:46;50.93;;;17.43;;
5869;SDS011;2961;47.702;9.410;2024-01-11T07:56:13;41.10;;;15.80;;
5869;SDS011;2961;47.702;9.410;2024-01-11T07:58:40;51.73;;;17.87;;
5869;SDS011;2961;47.702;9.410;2024-01-11T08:01:07;48.27;;;15.20;;
5869;SDS011;2961;47.702;9.410;2024-01-11T08:03:35;59.13;;;20.13;;
5869;SDS011;2961;47.702;9.410;2024-01-11T08:06:03;47.83;;;18.33;;
5869;SDS011;2961;47.702;9.410;2024-01-11T08:08:33;49.23;;;18.63;;
5869;SDS011;2961;47.702;9.410;2024-01-11T08:11:01;48.23;;;16.70;;
5869;SDS011;2961;47.702;9.410;2024-01-11T08:13:28;45.40;;;17.40;;
5869;SDS011;2961;47.702;9.410;2024-01-11T08:15:56;51.50;;;18.63;;
5869;SDS011;2961;47.702;9.410;2024-01-11T08:18:23;47.70;;;16.90;;
5869;SDS011;2961;47.702;9.410;2024-01-11T08:20:51;53.73;;;18.97;;
5869;SDS011;2961;47.702;9.410;2024-01-11T08:23:18;49.47;;;17.50;;
5869;SDS011;2961;47.702;9.410;2024-01-11T08:25:47;59.20;;;17.73;;
5869;SDS011;2961;47.702;9.410;2024-01-11T08:28:14;44.57;;;15.87;;
5869;SDS011;2961;47.702;9.410;2024-01-11T08:30:40;52.90;;;18.40;;
5869;SDS011;2961;47.702;9.410;2024-01-11T08:33:07;56.93;;;15.00;;
5869;SDS011;2961;47.702;9.410;2024-01-11T08:35:34;52.27;;;19.07;;
5869;SDS011;2961;47.702;9.410;2024-01-11T08:38:01;53.53;;;19.50;;
5869;SDS011;2961;47.702;9.410;2024-01-11T08:40:29;48.43;;;19.20;;
5869;SDS011;2961;47.702;9.410;2024-01-11T08:42:57;65.30;;;18.77;;
5869;SDS011;2961;47.702;9.410;2024-01-11T08:45:24;57.27;;;18.40;;
5869;SDS011;2961;47.702;9.410;2024-01-11T08:47:51;65.37;;;20.40;;
5869;SDS011;2961;47.702;9.410;2024-01-11T08:50:18;53.00;;;17.47;;
5869;SDS011;2961;47.702;9.410;2024-01-11T08:52:46;51.90;;;18.70;;
5869;SDS011;2961;47.702;9.410;2024-01-11T08:55:13;56.37;;;18.57;;
5869;SDS011;2961;47.702;9.410;2024-01-11T08:57:40;41.30;;;17.07;;
5869;SDS011;2961;47.702;9.410;2024-01-11T09:00:09;43.83;;;16.07;;
5869;SDS011;2961;47.702;9.410;2024-01-11T09:02:36;43.07;;;17.23;;
5869;SDS011;2961;47.702;9.410;2024-01-11T09:05:03;33.03;;;14.30;;
5869;SDS011;2961;47.702;9.410;2024-01-11T09:07:32;43.60;;;16.57;;
5869;SDS011;2961;47.702;9.410;2024-01-11T09:09:59;43.47;;;17.67;;
5869;SDS011;2961;47.702;9.410;2024-01-11T09:12:25;46.40;;;17.83;;
5869;SDS011;2961;47.702;9.410;2024-01-11T09:14:52;38.83;;;15.37;;
5869;SDS011;2961;47.702;9.410;2024-01-11T09:17:21;42.10;;;16.67;;
5869;SDS011;2961;47.702;9.410;2024-01-11T09:19:48;43.50;;;16.27;;
5869;SDS011;2961;47.702;9.410;2024-01-11T09:22:14;50.73;;;16.07;;
5869;SDS011;2961;47.702;9.410;2024-01-11T09:24:41;37.50;;;15.57;;
5869;SDS011;2961;47.702;9.410;2024-01-11T09:27:08;48.57;;;14.90;;
5869;SDS011;2961;47.702;9.410;2024-01-11T09:29:35;32.43;;;14.73;;
5869;SDS011;2961;47.702;9.410;2024-01-11T09:32:02;41.03;;;15.50;;
5869;SDS011;2961;47.702;9.410;2024-01-11T09:34:31;33.83;;;14.60;;
5869;SDS011;2961;47.702;9.410;2024-01-11T09:36:58;31.43;;;12.07;;
5869;SDS011;2961;47.702;9.410;2024-01-11T09:39:25;33.50;;;12.03;;
5869;SDS011;2961;47.702;9.410;2024-01-11T09:41:52;36.27;;;14.00;;
5869;SDS011;2961;47.702;9.410;2024-01-11T09:44:24;31.17;;;13.73;;
5869;SDS011;2961;47.702;9.410;2024-01-11T09:46:52;37.70;;;16.03;;
5869;SDS011;2961;47.702;9.410;2024-01-11T09:49:19;38.73;;;14.10;;
5869;SDS011;2961;47.702;9.410;2024-01-11T09:51:50;46.93;;;15.00;;
5869;SDS011;2961;47.702;9.410;2024-01-11T09:54:17;37.60;;;15.87;;
5869;SDS011;2961;47.702;9.410;2024-01-11T09:56:46;32.20;;;13.17;;
5869;SDS011;2961;47.702;9.410;2024-01-11T09:59:16;39.30;;;15.73;;
5869;SDS011;2961;47.702;9.410;2024-01-11T10:01:44;39.27;;;16.20;;
5869;SDS011;2961;47.702;9.410;2024-01-11T10:04:12;34.63;;;15.83;;
5869;SDS011;2961;47.702;9.410;2024-01-11T10:06:40;42.53;;;15.43;;
5869;SDS011;2961;47.702;9.410;2024-01-11T10:09:10;39.30;;;14.93;;
5869;SDS011;2961;47.702;9.410;2024-01-11T10:11:37;45.60;;;17.93;;
5869;SDS011;2961;47.702;9.410;2024-01-11T10:14:04;48.97;;;17.40;;
5869;SDS011;2961;47.702;9.410;2024-01-11T10:16:31;51.13;;;18.23;;
5869;SDS011;2961;47.702;9.410;2024-01-11T10:18:57;43.80;;;16.53;;
5869;SDS011;2961;47.702;9.410;2024-01-11T10:21:24;38.80;;;16.03;;
5869;SDS011;2961;47.702;9.410;2024-01-11T10:23:53;39.77;;;16.90;;
5869;SDS011;2961;47.702;9.410;2024-01-11T10:26:21;41.00;;;16.73;;
5869;SDS011;2961;47.702;9.410;2024-01-11T10:28:48;40.27;;;15.30;;
5869;SDS011;2961;47.702;9.410;2024-01-11T10:31:15;32.67;;;13.87;;
5869;SDS011;2961;47.702;9.410;2024-01-11T10:33:43;33.67;;;14.90;;
5869;SDS011;2961;47.702;9.410;2024-01-11T10:36:11;39.43;;;17.10;;
5869;SDS011;2961;47.702;9.410;2024-01-11T10:38:38;34.57;;;15.20;;
5869;SDS011;2961;47.702;9.410;2024-01-11T10:41:06;32.37;;;12.90;;
5869;SDS011;2961;47.702;9.410;2024-01-11T10:43:36;35.57;;;15.03;;
5869;SDS011;2961;47.702;9.410;2024-01-11T10:46:04;42.60;;;18.13;;
5869;SDS011;2961;47.702;9.410;2024-01-11T10:48:33;47.07;;;17.10;;
5869;SDS011;2961;47.702;9.410;2024-01-11T10:51:05;37.97;;;17.03;;
5869;SDS011;2961;47.702;9.410;2024-01-11T10:53:36;44.40;;;17.30;;
5869;SDS011;2961;47.702;9.410;2024-01-11T10:56:07;38.77;;;16.37;;
5869;SDS011;2961;47.702;9.410;2024-01-11T10:58:38;43.87;;;16.87;;
5869;SDS011;2961;47.702;9.410;2024-01-11T11:01:06;45.60;;;17.83;;
5869;SDS011;2961;47.702;9.410;2024-01-11T11:03:36;42.20;;;15.67;;
5869;SDS011;2961;47.702;9.410;2024-01-11T11:06:04;42.63;;;14.97;;
5869;SDS011;2961;47.702;9.410;2024-01-11T11:08:32;40.80;;;15.97;;
5869;SDS011;2961;47.702;9.410;2024-01-11T11:11:02;38.30;;;15.90;;
5869;SDS011;2961;47.702;9.410;2024-01-11T11:13:31;34.23;;;14.10;;
5869;SDS011;2961;47.702;9.410;2024-01-11T11:15:59;36.13;;;14.93;;
5869;SDS011;2961;47.702;9.410;2024-01-11T11:18:28;37.57;;;15.17;;
5869;SDS011;2961;47.702;9.410;2024-01-11T11:20:56;31.50;;;14.77;;
5869;SDS011;2961;47.702;9.410;2024-01-11T11:23:23;37.37;;;13.97;;
5869;SDS011;2961;47.702;9.410;2024-01-11T11:25:50;31.90;;;13.90;;
5869;SDS011;2961;47.702;9.410;2024-01-11T11:28:20;30.87;;;13.30;;
5869;SDS011;2961;47.702;9.410;2024-01-11T11:30:49;30.23;;;13.90;;
5869;SDS011;2961;47.702;9.410;2024-01-11T11:33:18;43.23;;;14.33;;
5869;SDS011;2961;47.702;9.410;2024-01-11T11:35:46;32.47;;;14.97;;
5869;SDS011;2961;47.702;9.410;2024-01-11T11:38:17;26.03;;;10.77;;
5869;SDS011;2961;47.702;9.410;2024-01-11T11:40:46;28.63;;;12.33;;
5869;SDS011;2961;47.702;9.410;2024-01-11T11:43:15;29.37;;;13.23;;
5869;SDS011;2961;47.702;9.410;2024-01-11T11:45:42;38.07;;;16.00;;
5869;SDS011;2961;47.702;9.410;2024-01-11T11:51:16;27.97;;;12.47;;
5869;SDS011;2961;47.702;9.410;2024-01-11T11:53:45;31.60;;;13.10;;
5869;SDS011;2961;47.702;9.410;2024-01-11T11:56:13;29.90;;;12.90;;
5869;SDS011;2961;47.702;9.410;2024-01-11T11:58:42;29.80;;;13.20;;
5869;SDS011;2961;47.702;9.410;2024-01-11T12:01:09;30.30;;;12.30;;
5869;SDS011;2961;47.702;9.410;2024-01-11T12:03:37;32.63;;;11.93;;
5869;SDS011;2961;47.702;9.410;2024-01-11T12:06:08;33.13;;;14.03;;
5869;SDS011;2961;47.702;9.410;2024-01-11T12:08:35;23.43;;;12.67;;
5869;SDS011;2961;47.702;9.410;2024-01-11T12:11:04;32.43;;;14.03;;
5869;SDS011;2961;47.702;9.410;2024-01-11T12:13:31;31.40;;;13.97;;
5869;SDS011;2961;47.702;9.410;2024-01-11T12:15:58;38.87;;;14.60;;
5869;SDS011;2961;47.702;9.410;2024-01-11T12:18:25;34.47;;;15.13;;
5869;SDS011;2961;47.702;9.410;2024-01-11T12:20:52;29.87;;;12.97;;
5869;SDS011;2961;47.702;9.410;2024-01-11T12:23:20;28.80;;;12.47;;
5869;SDS011;2961;47.702;9.410;2024-01-11T12:25:48;36.47;;;15.75;;
5869;SDS011;2961;47.702;9.410;2024-01-11T12:28:15;32.00;;;15.30;;
5869;SDS011;2961;47.702;9.410;2024-01-11T12:30:42;39.97;;;14.77;;
5869;SDS011;2961;47.702;9.410;2024-01-11T12:33:08;33.47;;;14.63;;
5869;SDS011;2961;47.702;9.410;2024-01-11T12:35:36;36.70;;;14.47;;
5869;SDS011;2961;47.702;9.410;2024-01-11T12:38:04;37.47;;;12.83;;
5869;SDS011;2961;47.702;9.410;2024-01-11T12:40:33;33.40;;;12.80;;
5869;SDS011;2961;47.702;9.410;2024-01-11T12:43:02;35.13;;;14.33;;
5869;SDS011;2961;47.702;9.410;2024-01-11T12:45:29;38.50;;;14.43;;
5869;SDS011;2961;47.702;9.410;2024-01-11T12:47:57;27.97;;;12.97;;
5869;SDS011;2961;47.702;9.410;2024-01-11T12:50:24;34.57;;;13.20;;
5869;SDS011;2961;47.702;9.410;2024-01-11T12:53:04;40.83;;;15.63;;
5869;SDS011;2961;47.702;9.410;2024-01-11T12:55:33;39.17;;;14.53;;
5869;SDS011;2961;47.702;9.410;2024-01-11T12:58:04;31.83;;;13.43;;
5869;SDS011;2961;47.702;9.410;2024-01-11T13:00:31;34.97;;;14.23;;
5869;SDS011;2961;47.702;9.410;2024-01-11T13:02:58;32.90;;;14.43;;
5869;SDS011;2961;47.702;9.410;2024-01-11T13:05:25;37.27;;;14.90;;
5869;SDS011;2961;47.702;9.410;2024-01-11T13:07:52;32.80;;;14.07;;
5869;SDS011;2961;47.702;9.410;2024-01-11T13:10:19;32.37;;;13.53;;
5869;SDS011;2961;47.702;9.410;2024-01-11T13:12:47;32.70;;;14.80;;
5869;SDS011;2961;47.702;9.410;2024-01-11T13:15:14;36.00;;;15.00;;
5869;SDS011;2961;47.702;9.410;2024-01-11T13:17:40;39.53;;;13.90;;
5869;SDS011;2961;47.702;9.410;2024-01-11T13:20:07;32.30;;;13.73;;
5869;SDS011;2961;47.702;9.410;2024-01-11T13:22:35;39.30;;;14.50;;
5869;SDS011;2961;47.702;9.410;2024-01-11T13:25:01;33.57;;;14.57;;
5869;SDS011;2961;47.702;9.410;2024-01-11T13:27:29;43.00;;;15.37;;
5869;SDS011;2961;47.702;9.410;2024-01-11T13:29:58;35.67;;;14.60;;
5869;SDS011;2961;47.702;9.410;2024-01-11T13:32:25;34.77;;;15.13;;
5869;SDS011;2961;47.702;9.410;2024-01-11T13:34:52;38.70;;;14.87;;
5869;SDS011;2961;47.702;9.410;2024-01-11T13:37:19;31.40;;;14.50;;
5869;SDS011;2961;47.702;9.410;2024-01-11T13:39:46;37.33;;;14.60;;
5869;SDS011;2961;47.702;9.410;2024-01-11T13:42:13;37.07;;;14.43;;
5869;SDS011;2961;47.702;9.410;2024-01-11T13:44:41;33.00;;;14.33;;
5869;SDS011;2961;47.702;9.410;2024-01-11T13:47:09;32.23;;;13.60;;
5869;SDS011;2961;47.702;9.410;2024-01-11T13:49:36;38.00;;;15.13;;
5869;SDS011;2961;47.702;9.410;2024-01-11T13:52:03;43.30;;;15.90;;
5869;SDS011;2961;47.702;9.410;2024-01-11T13:54:31;36.90;;;15.07;;
5869;SDS011;2961;47.702;9.410;2024-01-11T13:56:57;33.13;;;12.83;;
5869;SDS011;2961;47.702;9.410;2024-01-11T13:59:25;42.23;;;16.47;;
5869;SDS011;2961;47.702;9.410;2024-01-11T14:01:52;42.33;;;15.00;;
5869;SDS011;2961;47.702;9.410;2024-01-11T14:04:20;32.47;;;13.90;;
5869;SDS011;2961;47.702;9.410;2024-01-11T14:06:48;36.13;;;13.87;;
5869;SDS011;2961;47.702;9.410;2024-01-11T14:09:16;38.60;;;15.00;;
5869;SDS011;2961;47.702;9.410;2024-01-11T14:11:43;35.70;;;14.07;;
5869;SDS011;2961;47.702;9.410;2024-01-11T14:14:10;37.60;;;16.87;;
5869;SDS011;2961;47.702;9.410;2024-01-11T14:16:37;43.60;;;14.77;;
5869;SDS011;2961;47.702;9.410;2024-01-11T14:19:03;53.83;;;17.77;;
5869;SDS011;2961;47.702;9.410;2024-01-11T14:21:31;44.87;;;15.40;;
5869;SDS011;2961;47.702;9.410;2024-01-11T14:23:58;46.57;;;17.20;;
5869;SDS011;2961;47.702;9.410;2024-01-11T14:26:25;48.97;;;17.07;;
5869;SDS011;2961;47.702;9.410;2024-01-11T14:28:52;53.23;;;17.33;;
5869;SDS011;2961;47.702;9.410;2024-01-11T14:31:19;44.07;;;14.60;;
5869;SDS011;2961;47.702;9.410;2024-01-11T14:33:46;54.30;;;18.00;;
5869;SDS011;2961;47.702;9.410;2024-01-11T14:36:14;45.10;;;15.60;;
5869;SDS011;2961;47.702;9.410;2024-01-11T14:38:42;47.92;;;17.05;;
5869;SDS011;2961;47.702;9.410;2024-01-11T14:41:09;42.93;;;15.10;;
5869;SDS011;2961;47.702;9.410;2024-01-11T14:43:36;34.37;;;14.87;;
5869;SDS011;2961;47.702;9.410;2024-01-11T14:46:03;40.77;;;15.37;;
5869;SDS011;2961;47.702;9.410;2024-01-11T14:48:30;45.50;;;16.07;;
5869;SDS011;2961;47.702;9.410;2024-01-11T14:50:57;48.70;;;16.23;;
5869;SDS011;2961;47.702;9.410;2024-01-11T14:53:24;58.13;;;16.47;;